• Join FlightAware (Why Join?)
  • Login
  • US Flag 
02:27PM EST


 

Airport Tracker/Info


-or-


 

Live Flight TrackerFlight Track Log ✈ UAL4693 ✈ 23-Dec-2013 ✈ KCLE - KMSN

Flight Track Log - Related Links

Times and Time Zones

All times are in EST time to prevent confusion due to time zone crossing. See the UAL4693 flight status page for this flight to view local times or setup timezone preferences in your user account.

Time Position Orientation Groundspeed Altitude Reporting Facility
EST Latitude Longitude Course Direction KTS MPH feet Rate Location/Type
05:35PM 41.3925 -81.8811 239° Southwest 178 205 1,900  Level Cleveland Center
05:36PM 41.3917 -81.9297 269° West 212 244 3,400 2,520 Climbing Cleveland Center
05:37PM 41.3931 -81.9650 273° West 214 246 4,700 2,400 Climbing Cleveland Center
05:37PM 41.3967 -82.0111 276° West 217 250 5,900 2,460 Climbing Cleveland Center
05:38PM 41.3967 -82.0408 270° West 237 273 7,000 2,820 Climbing Cleveland Center
05:38PM 41.3989 -82.0978 273° West 230 265 8,800 2,220 Climbing Cleveland Center
05:39PM 41.5309 -82.3075 261° West  Level Estimated
05:39PM 41.4006 -82.1861 271° West 237 273 11,000  Level Cleveland Center
05:40PM 41.4849 -82.4109 239° Southwest  Level FlightAware Approximate
05:40PM 41.3739 -82.2806 249° West 268 308 12,100  Level Cleveland Center
05:41PM 41.4388 -82.5142 239° Southwest  Level FlightAware Approximate
05:41PM 41.3769 -82.3919 272° West 317 365 13,100  Level Cleveland Center
05:42PM 41.4303 -82.4953 305° West 333 383 14,500 1,320 Climbing Cleveland Center
05:43PM 41.4831 -82.5981 304° West 334 384 15,900 1,260 Climbing Cleveland Center
05:44PM 41.5458 -82.7183 305° West 337 388 17,100 1,080 Climbing Cleveland Center
05:45PM 41.5997 -82.8236 304° West 340 391 18,200 1,200 Climbing Cleveland Center
05:46PM 41.6478 -82.9197 304° West 338 389 19,700 1,500 Climbing Cleveland Center
05:48PM 41.6997 -83.0217 304° West 335 386 21,400 1,560 Climbing Cleveland Center
05:49PM 41.7514 -83.1228 304° West 331 381 23,000 1,740 Climbing Cleveland Center
05:50PM 41.8119 -83.2428 304° West 324 373 25,000 1,500 Climbing Cleveland Center
05:51PM 41.8608 -83.3408 304° West 318 366 26,200 960 Climbing Cleveland Center
05:52PM 41.9081 -83.4356 304° West 324 373 27,100 840 Climbing Cleveland Center
05:53PM 41.9603 -83.5386 304° West 330 380 28,000 960 Climbing Cleveland Center
05:54PM 42.0158 -83.6497 304° West 333 383 29,100 960 Climbing Cleveland Center
05:55PM 42.0681 -83.7553 304° West 336 387 30,000 900 Climbing Cleveland Center
05:56PM 42.1208 -83.8614 304° West 338 389 31,000 900 Climbing Cleveland Center
05:57PM 42.1739 -83.9694 304° West 343 395 31,900 480 Climbing Cleveland Center
05:58PM 42.2286 -84.0825 303° West 352 405 32,000  Climbing Cleveland Center
05:59PM 42.2983 -84.2258 303° West 376 433 32,000  Level Cleveland Center
06:00PM 42.3519 -84.3478 301° West 377 434 32,000  Level Cleveland Center
06:01PM 42.3675 -84.4269 285° West 364 419 32,000  Level Chicago Center
06:02PM 42.3900 -84.5556 283° West 354 407 32,000  Level Chicago Center
06:03PM 42.4172 -84.7103 283° West 354 407 32,000  Level Chicago Center
06:04PM 42.4411 -84.8400 284° West 356 410 32,000  Level Chicago Center
06:05PM 42.4650 -84.9767 283° West 364 419 32,000  Level Chicago Center
06:06PM 42.4883 -85.1089 284° West 368 423 32,000  Level Chicago Center
06:07PM 42.5114 -85.2467 283° West 369 425 32,000  Level Chicago Center
06:08PM 42.5358 -85.3844 284° West 375 432 32,000  Level Chicago Center
06:09PM 42.5589 -85.5200 283° West 376 433 32,000  Level Chicago Center
06:10PM 42.5822 -85.6583 283° West 377 434 32,000  Level Chicago Center
06:11PM 42.6103 -85.8258 283° West 377 434 32,000  Level Chicago Center
06:12PM 42.6342 -85.9667 283° West 379 436 32,000  Level Chicago Center
06:13PM 42.6581 -86.1083 283° West 381 438 32,000  Level Chicago Center
06:14PM 42.6808 -86.2522 282° West 386 444 32,000  Level Chicago Center
06:15PM 42.7050 -86.3958 283° West 387 445 32,000  Level Chicago Center
06:16PM 42.7283 -86.5428 282° West 394 453 32,000  Level Chicago Center
06:17PM 42.7511 -86.6908 282° West 398 458 32,000  Level Chicago Center
06:18PM 42.7744 -86.8381 282° West 396 456 32,000  Level Chicago Center
06:19PM 42.7975 -86.9869 282° West 399 459 32,000  Level Chicago Center
06:20PM 42.8261 -87.1667 282° West 404 465 32,000 -600 Level Chicago Center
06:21PM 42.8478 -87.3144 281° West 400 460 30,800 -1,740 Descending Chicago Center
06:22PM 42.8683 -87.4458 282° West 381 438 28,500 -2,340 Descending Chicago Center
06:23PM 42.8892 -87.5828 282° West 370 426 26,000 -2,100 Descending Chicago Center
06:24PM 42.9108 -87.7250 282° West 381 438 24,300 -2,100 Descending Chicago Center
06:25PM 42.9347 -87.8889 281° West 369 425 21,700 -2,520 Descending Chicago Center
06:26PM 42.9536 -88.0194 281° West 354 407 19,200 -2,280 Descending Chicago Center
06:27PM 42.9731 -88.1494 282° West 350 403 17,100 -2,100 Descending Chicago Center
06:28PM 42.9922 -88.2792 281° West 348 400 14,900 -1,500 Descending Chicago Center
06:29PM 43.0103 -88.4058 281° West 341 392 14,100 -480 Descending Chicago Center
06:30PM 43.0292 -88.5378 281° West 350 403 14,000 -180 Descending Chicago Center
06:31PM 43.0472 -88.6672 281° West 348 400 13,800 -1,260 Descending Chicago Center
06:32PM 43.0683 -88.7906 283° West 335 386 11,500 -1,860 Descending Chicago Center
06:33PM 43.0950 -88.8953 289° West 296 341 10,000 -1,620 Descending Chicago Center
06:34PM 43.1186 -88.9908 289° West 270 311 8,200 -2,040 Descending Chicago Center
06:36PM 43.1439 -89.0978 288° West 256 295 5,900 -2,040 Descending Chicago Center
06:37PM 43.1794 -89.1742 303° West 253 291 4,100 -1,500 Descending Chicago Center
06:38PM 43.2172 -89.2411 308° West 236 272 2,900 -720 Descending Chicago Center
06:39PM 43.2142 -89.3033 266° West 202 232 2,700 -540 Descending Chicago Center
06:40PM 43.1908 -89.3361 226° Southwest 148 170 1,900 -780 Descending Chicago Center
06:41PM 43.1558 -89.3428 188° South 133 153 1,200 -720 Descending Chicago Center